KBRY/BRY METAR and TAF weather

Enter ICAO airport designator
Station Type Date Time Source
KBRY METAR 2019/12/11 15:15 UTC NOAA

KBRY 111515Z AUTO 20006KT 10SM CLR M02/M07 A3051 RMK AO1


Station Type Date Time Source
KBRY Decoded METAR 2019/12/11 15:15 UTC NOAA

Station name not available
Dec 11, 2019 - 10:15 AM EST / 2019.12.11 1515 UTC
Wind: from the SSW (200 degrees) at 7 MPH (6 KT):0
Visibility: 10 mile(s):0
Sky conditions: clear
Temperature: 28 F (-2 C)
Windchill: 21 F (-6 C):1
Dew Point: 19 F (-7 C)
Relative Humidity: 68%
Pressure (altimeter): 30.51 in. Hg (1033 hPa)
ob: KBRY 111515Z AUTO 20006KT 10SM CLR M02/M07 A3051 RMK AO1
cycle: 15

Station Type Date Time Source
KBRY TAF UTC NOAA

Error!

Example: see airport list